createdAt,value
2023-02-16T00:01:46.955Z,51.50
2023-02-16T00:04:19.545Z,48.23
2023-02-16T00:06:48.385Z,49.00
2023-02-16T00:09:17.474Z,52.03
2023-02-16T00:12:04.222Z,50.20
2023-02-16T00:14:34.935Z,47.60
2023-02-16T00:17:05.434Z,46.93
2023-02-16T00:19:36.989Z,45.53
2023-02-16T00:22:07.761Z,43.50
2023-02-16T00:24:36.424Z,44.47
2023-02-16T00:27:05.132Z,41.20
2023-02-16T00:29:35.702Z,44.03
2023-02-16T00:32:07.426Z,44.60
2023-02-16T00:34:37.682Z,42.70
2023-02-16T00:37:08.700Z,42.77
2023-02-16T00:39:38.011Z,43.30
2023-02-16T00:42:08.730Z,41.13
2023-02-16T00:44:40.832Z,42.77
2023-02-16T00:47:20.479Z,42.53
2023-02-16T00:49:50.087Z,40.17
2023-02-16T00:52:31.245Z,42.60
2023-02-16T00:55:01.081Z,44.90
2023-02-16T00:57:32.636Z,41.80
2023-02-16T01:00:06.547Z,43.43
2023-02-16T01:02:40.390Z,41.60
2023-02-16T01:05:09.080Z,42.67
2023-02-16T01:07:54.972Z,40.80
2023-02-16T01:10:40.641Z,41.70
2023-02-16T01:13:09.384Z,41.57
2023-02-16T01:15:39.281Z,39.90
2023-02-16T01:18:09.654Z,40.33
2023-02-16T01:20:38.092Z,40.70
2023-02-16T01:23:06.697Z,41.10
2023-02-16T01:25:35.389Z,39.97
2023-02-16T01:28:03.880Z,43.00
2023-02-16T01:30:32.484Z,41.50
2023-02-16T01:33:00.951Z,41.83
2023-02-16T01:35:35.009Z,43.37
2023-02-16T01:38:04.041Z,44.40
2023-02-16T01:40:42.722Z,42.23
2023-02-16T01:43:20.595Z,40.43
2023-02-16T01:45:56.587Z,39.90
2023-02-16T01:48:29.001Z,39.10
2023-02-16T01:51:05.325Z,40.17
2023-02-16T01:53:39.280Z,40.67
2023-02-16T01:56:21.437Z,45.00
2023-02-16T01:58:53.774Z,48.63
2023-02-16T02:01:53.996Z,46.33
2023-02-16T02:04:46.513Z,46.43
2023-02-16T02:07:23.515Z,44.23
2023-02-16T02:10:01.896Z,44.80
2023-02-16T02:12:36.438Z,43.03
2023-02-16T02:15:05.011Z,44.93
2023-02-16T02:17:34.299Z,46.40
2023-02-16T02:20:10.841Z,43.43
2023-02-16T02:23:34.709Z,44.27
2023-02-16T02:26:48.708Z,44.00
2023-02-16T02:29:46.919Z,42.60
2023-02-16T02:32:23.003Z,42.97
2023-02-16T02:35:05.493Z,42.13
2023-02-16T02:37:46.958Z,45.20
2023-02-16T02:40:24.244Z,44.40
2023-02-16T02:43:02.496Z,44.43
2023-02-16T02:45:36.208Z,44.87
2023-02-16T02:48:04.955Z,43.30
2023-02-16T02:50:42.357Z,44.20
2023-02-16T02:53:16.528Z,42.40
2023-02-16T02:56:05.841Z,43.07
2023-02-16T02:58:53.236Z,40.77
2023-02-16T03:01:24.447Z,44.67
2023-02-16T03:03:57.694Z,43.20
2023-02-16T03:06:29.896Z,43.07
2023-02-16T03:09:02.424Z,47.83
2023-02-16T03:11:48.560Z,48.27
2023-02-16T03:14:20.757Z,44.30
2023-02-16T03:17:11.852Z,43.77
2023-02-16T03:20:00.735Z,42.30
2023-02-16T03:22:47.604Z,50.13
2023-02-16T03:25:33.928Z,46.37
2023-02-16T03:28:22.160Z,43.33
2023-02-16T03:30:54.632Z,46.73
2023-02-16T03:33:26.359Z,47.70
2023-02-16T03:35:55.555Z,49.03
2023-02-16T03:38:24.334Z,51.10
2023-02-16T03:40:54.309Z,50.53
2023-02-16T03:43:27.145Z,50.93
2023-02-16T03:45:55.854Z,46.47
2023-02-16T03:48:25.663Z,49.47
2023-02-16T03:50:54.128Z,47.60
2023-02-16T03:53:22.539Z,43.43
2023-02-16T03:55:51.051Z,46.17
2023-02-16T03:58:20.885Z,43.20
2023-02-16T04:00:49.634Z,44.00
2023-02-16T04:03:18.182Z,44.63
2023-02-16T04:05:48.058Z,42.07
2023-02-16T04:08:16.564Z,40.90
2023-02-16T04:10:45.055Z,42.53
2023-02-16T04:13:12.718Z,41.37
2023-02-16T04:15:42.190Z,38.17
2023-02-16T04:18:10.721Z,39.23
2023-02-16T04:20:39.312Z,38.73
2023-02-16T04:23:09.586Z,39.53
2023-02-16T04:25:38.183Z,41.00
2023-02-16T04:28:06.628Z,40.60
2023-02-16T04:30:35.199Z,39.40
2023-02-16T04:33:03.704Z,39.23
2023-02-16T04:35:32.238Z,39.87
2023-02-16T04:38:00.771Z,40.37
2023-02-16T04:40:30.668Z,39.53
2023-02-16T04:42:59.154Z,38.33
2023-02-16T04:45:27.501Z,39.97
2023-02-16T04:47:55.942Z,40.07
2023-02-16T04:50:24.333Z,39.13
2023-02-16T04:52:52.788Z,41.20
2023-02-16T04:55:21.382Z,38.10
2023-02-16T04:57:51.220Z,40.07
2023-02-16T05:00:20.835Z,42.63
2023-02-16T05:02:49.436Z,42.53
2023-02-16T05:05:17.921Z,42.40
2023-02-16T05:07:46.291Z,41.27
2023-02-16T05:10:14.643Z,45.50
2023-02-16T05:13:00.497Z,54.13
2023-02-16T05:15:30.479Z,51.03
2023-02-16T05:17:59.061Z,54.93
2023-02-16T05:20:47.696Z,72.13
2023-02-16T05:23:16.090Z,63.50
2023-02-16T05:25:44.456Z,54.97
2023-02-16T05:28:12.912Z,49.33
2023-02-16T05:30:42.961Z,50.67
2023-02-16T05:33:11.394Z,49.43
2023-02-16T05:35:39.777Z,47.37
2023-02-16T05:38:08.271Z,46.67
2023-02-16T05:40:36.666Z,44.73
2023-02-16T05:43:05.024Z,45.13
2023-02-16T05:45:33.428Z,42.23
2023-02-16T05:48:03.382Z,46.27
2023-02-16T05:50:31.893Z,45.83
2023-02-16T05:53:00.323Z,43.10
2023-02-16T05:55:28.962Z,42.67
2023-02-16T05:57:57.430Z,42.57
2023-02-16T06:00:25.995Z,45.50
2023-02-16T06:02:54.577Z,45.30
2023-02-16T06:05:24.429Z,45.20
2023-02-16T06:07:52.830Z,45.97
2023-02-16T06:10:21.584Z,45.03
2023-02-16T06:12:50.007Z,44.30
2023-02-16T06:15:18.544Z,45.70
2023-02-16T06:17:46.960Z,44.00
2023-02-16T06:20:15.388Z,46.17
2023-02-16T06:22:45.232Z,50.27
2023-02-16T06:25:13.629Z,48.77
2023-02-16T06:27:42.007Z,49.27
2023-02-16T06:30:10.994Z,48.93
2023-02-16T06:32:39.981Z,48.87
2023-02-16T06:35:10.205Z,52.77
2023-02-16T06:37:38.595Z,55.60
2023-02-16T06:40:10.714Z,58.90
2023-02-16T06:42:39.796Z,62.67
2023-02-16T06:45:09.127Z,62.10
2023-02-16T06:47:37.878Z,61.77
2023-02-16T06:50:09.936Z,63.43
2023-02-16T06:52:38.616Z,59.63
2023-02-16T06:55:09.355Z,60.30
2023-02-16T06:57:37.708Z,68.37
2023-02-16T07:00:07.887Z,68.00
2023-02-16T07:02:37.776Z,67.47
2023-02-16T07:05:06.517Z,72.40
2023-02-16T07:07:35.010Z,62.43
2023-02-16T07:10:03.765Z,58.60
2023-02-16T07:12:33.584Z,54.37
2023-02-16T07:15:02.021Z,52.77
2023-02-16T07:17:30.418Z,51.33
2023-02-16T07:20:00.050Z,51.83
2023-02-16T07:22:29.962Z,52.13
2023-02-16T07:24:59.262Z,53.90
2023-02-16T07:27:28.775Z,52.60
2023-02-16T07:29:58.874Z,53.30
2023-02-16T07:32:27.387Z,50.93
2023-02-16T07:34:55.868Z,51.30
2023-02-16T07:37:24.279Z,49.53
2023-02-16T07:39:53.286Z,49.53
2023-02-16T07:42:22.010Z,49.07
2023-02-16T07:44:50.445Z,48.43
2023-02-16T07:47:20.254Z,46.10
2023-02-16T07:49:48.606Z,43.93
2023-02-16T07:52:17.031Z,42.27
2023-02-16T07:54:46.743Z,41.27
2023-02-16T07:57:15.167Z,42.43
2023-02-16T07:59:43.650Z,41.17
2023-02-16T08:02:17.334Z,40.63
2023-02-16T08:04:47.404Z,39.17
2023-02-16T08:07:15.946Z,39.67
2023-02-16T08:09:44.491Z,43.03
2023-02-16T08:12:14.032Z,43.93
2023-02-16T08:14:42.506Z,46.30
2023-02-16T08:17:11.413Z,44.23
2023-02-16T08:19:40.500Z,44.27
2023-02-16T08:22:12.456Z,46.10
2023-02-16T08:24:40.886Z,43.43
2023-02-16T08:27:09.272Z,41.73
2023-02-16T08:29:37.936Z,39.00
2023-02-16T08:32:08.162Z,36.70
2023-02-16T08:34:36.950Z,36.37
2023-02-16T08:37:05.489Z,35.47
2023-02-16T08:39:36.528Z,36.53
2023-02-16T08:42:05.505Z,34.60
2023-02-16T08:44:33.942Z,34.57
2023-02-16T08:47:02.976Z,34.70
2023-02-16T08:49:31.910Z,32.77
2023-02-16T08:52:01.788Z,31.10
2023-02-16T08:54:33.570Z,30.40
2023-02-16T08:57:04.207Z,30.37
2023-02-16T08:59:32.953Z,29.90
2023-02-16T09:02:02.042Z,29.83
2023-02-16T09:04:30.773Z,28.03
2023-02-16T09:06:59.970Z,29.13
2023-02-16T09:09:29.473Z,26.87
2023-02-16T09:11:58.819Z,26.73
2023-02-16T09:14:28.722Z,25.73
2023-02-16T09:16:58.384Z,23.20
2023-02-16T09:19:26.824Z,25.70
2023-02-16T09:21:56.583Z,25.40
2023-02-16T09:24:25.510Z,24.07
2023-02-16T09:26:53.930Z,25.53
2023-02-16T09:29:23.285Z,25.30
2023-02-16T09:31:53.152Z,24.43
2023-02-16T09:34:24.500Z,22.17
2023-02-16T09:36:53.916Z,23.87
2023-02-16T09:39:23.037Z,22.83
2023-02-16T09:42:22.072Z,22.70
2023-02-16T09:44:55.570Z,21.27
2023-02-16T09:47:31.343Z,24.30
2023-02-16T09:50:01.827Z,23.37
2023-02-16T09:52:38.170Z,22.73
2023-02-16T09:55:09.287Z,21.23
2023-02-16T09:58:08.604Z,22.33
2023-02-16T10:00:49.684Z,23.47
2023-02-16T10:03:42.725Z,23.63
2023-02-16T10:06:28.603Z,20.60
2023-02-16T10:09:00.829Z,20.83
2023-02-16T10:11:42.086Z,20.93
2023-02-16T10:14:20.467Z,19.17
2023-02-16T10:16:57.245Z,18.27
2023-02-16T10:19:30.890Z,20.20
2023-02-16T10:22:04.064Z,19.00
2023-02-16T10:24:40.890Z,18.30
2023-02-16T10:27:14.974Z,18.67
2023-02-16T10:29:43.975Z,19.97
2023-02-16T10:32:21.370Z,17.00
2023-02-16T10:34:54.089Z,18.03
2023-02-16T10:37:37.248Z,17.43
2023-02-16T10:40:23.409Z,17.23
2023-02-16T10:42:57.998Z,18.27
2023-02-16T10:45:32.133Z,16.23
2023-02-16T10:48:00.690Z,18.40
2023-02-16T10:50:34.499Z,19.23
2023-02-16T10:53:08.507Z,18.37
2023-02-16T10:55:38.941Z,18.20
2023-02-16T10:58:18.467Z,18.57
2023-02-16T11:00:53.467Z,19.00
2023-02-16T11:03:25.994Z,19.70
2023-02-16T11:05:56.461Z,18.67
2023-02-16T11:08:26.026Z,17.90
2023-02-16T11:10:55.792Z,18.63
2023-02-16T11:13:29.398Z,15.80
2023-02-16T11:16:00.094Z,16.00
2023-02-16T11:18:36.598Z,16.10
2023-02-16T11:21:07.644Z,15.60
2023-02-16T11:23:37.530Z,17.80
2023-02-16T11:26:09.067Z,15.73
2023-02-16T11:28:39.743Z,14.33
2023-02-16T11:31:18.895Z,14.83
2023-02-16T11:33:59.187Z,15.27
2023-02-16T11:36:37.778Z,14.77
2023-02-16T11:39:11.228Z,16.13
2023-02-16T11:41:44.419Z,14.83
2023-02-16T11:44:27.765Z,15.70
2023-02-16T11:46:58.565Z,14.97
2023-02-16T11:49:35.688Z,14.67
2023-02-16T11:52:21.159Z,15.23
2023-02-16T11:54:54.115Z,14.33
2023-02-16T11:57:28.737Z,15.33
2023-02-16T11:59:58.965Z,15.83
2023-02-16T12:02:51.210Z,14.77
2023-02-16T12:05:28.715Z,14.03
2023-02-16T12:08:35.477Z,14.27
2023-02-16T12:11:17.040Z,14.47
2023-02-16T12:13:53.091Z,15.27
2023-02-16T12:16:32.641Z,14.67
2023-02-16T12:19:17.678Z,14.53
2023-02-16T12:21:50.782Z,14.60
2023-02-16T12:24:38.082Z,14.80
2023-02-16T12:27:11.703Z,15.53
2023-02-16T12:29:47.988Z,15.50
2023-02-16T12:32:30.478Z,14.53
2023-02-16T12:35:13.484Z,15.60
2023-02-16T12:37:47.344Z,15.27
2023-02-16T12:40:30.981Z,16.27
2023-02-16T12:43:10.483Z,16.33
2023-02-16T12:45:43.890Z,15.90
2023-02-16T12:48:38.986Z,16.33
2023-02-16T12:51:12.237Z,15.93
2023-02-16T12:53:48.113Z,17.60
2023-02-16T12:56:22.929Z,17.77
2023-02-16T12:58:56.154Z,16.23
2023-02-16T13:01:29.957Z,16.97
2023-02-16T13:04:03.285Z,17.30
2023-02-16T13:06:40.781Z,17.40
2023-02-16T13:09:21.786Z,16.03
2023-02-16T13:11:56.536Z,17.03
2023-02-16T13:14:28.993Z,18.07
2023-02-16T13:17:02.211Z,18.40
2023-02-16T13:19:31.757Z,18.57
2023-02-16T13:22:21.746Z,18.20
2023-02-16T13:25:04.146Z,18.53
2023-02-16T13:27:44.228Z,17.17
2023-02-16T13:30:48.904Z,18.57
2023-02-16T13:33:41.706Z,18.00
2023-02-16T13:36:38.438Z,17.33
2023-02-16T13:39:42.583Z,18.17
2023-02-16T13:42:34.126Z,18.87
2023-02-16T13:45:15.653Z,18.17
2023-02-16T13:47:44.697Z,18.33
2023-02-16T13:50:28.536Z,18.20
2023-02-16T13:53:00.201Z,18.03
2023-02-16T13:55:33.944Z,18.07
2023-02-16T13:58:07.633Z,18.07
2023-02-16T14:00:42.300Z,17.67
2023-02-16T14:03:13.767Z,19.37
2023-02-16T14:05:44.652Z,18.53
2023-02-16T14:08:25.102Z,19.10
2023-02-16T14:11:10.284Z,18.07
2023-02-16T14:13:52.169Z,17.70
2023-02-16T14:16:44.284Z,17.30
2023-02-16T14:19:21.356Z,17.80
2023-02-16T14:21:51.892Z,18.87
2023-02-16T14:24:33.525Z,18.53
2023-02-16T14:27:03.458Z,18.03
2023-02-16T14:29:34.429Z,18.23
2023-02-16T14:32:08.375Z,17.60
2023-02-16T14:34:42.899Z,17.47
2023-02-16T14:37:35.413Z,17.80
2023-02-16T14:40:17.643Z,18.17
2023-02-16T14:42:58.598Z,18.77
2023-02-16T14:46:08.432Z,17.30
2023-02-16T14:49:09.458Z,17.00
2023-02-16T14:52:13.830Z,17.33
2023-02-16T14:55:04.323Z,17.50
2023-02-16T14:57:37.278Z,17.43
2023-02-16T15:00:15.134Z,17.43
2023-02-16T15:02:56.936Z,16.87
2023-02-16T15:05:29.070Z,17.33
2023-02-16T15:08:09.349Z,16.77
2023-02-16T15:10:40.388Z,17.90
2023-02-16T15:13:09.998Z,17.97
2023-02-16T15:15:47.367Z,18.13
2023-02-16T15:18:18.829Z,17.97
2023-02-16T15:20:51.306Z,17.23
2023-02-16T15:23:23.366Z,17.07
2023-02-16T15:25:58.826Z,17.17
2023-02-16T15:28:29.702Z,31.03
2023-02-16T15:31:00.626Z,23.17
2023-02-16T15:33:37.457Z,18.87
2023-02-16T15:36:10.868Z,28.97
2023-02-16T15:38:42.132Z,27.90
2023-02-16T15:41:14.669Z,34.40
2023-02-16T15:43:47.721Z,57.67
2023-02-16T15:46:24.548Z,62.13
2023-02-16T15:48:53.033Z,32.50
2023-02-16T15:51:25.962Z,22.00
2023-02-16T15:53:58.811Z,39.30
2023-02-16T15:56:40.652Z,32.63
2023-02-16T15:59:23.808Z,625.63
2023-02-16T16:01:59.288Z,510.57
2023-02-16T16:04:29.536Z,368.10
2023-02-16T16:07:00.287Z,800.80
2023-02-16T16:09:33.135Z,606.53
2023-02-16T16:12:05.932Z,140.20
2023-02-16T16:14:37.226Z,43.37
2023-02-16T16:17:06.296Z,55.87
2023-02-16T16:19:36.606Z,223.83
2023-02-16T16:22:16.087Z,197.40
2023-02-16T16:24:48.809Z,44.37
2023-02-16T16:27:17.182Z,59.53
2023-02-16T16:29:47.961Z,35.50
2023-02-16T16:32:22.175Z,28.00
2023-02-16T16:34:51.310Z,24.93
2023-02-16T16:37:28.742Z,23.50
2023-02-16T16:40:05.887Z,21.23
2023-02-16T16:42:39.399Z,22.00
2023-02-16T16:45:09.117Z,21.90
2023-02-16T16:47:40.329Z,22.27
2023-02-16T16:50:31.917Z,21.80
2023-02-16T16:53:00.347Z,21.70
2023-02-16T16:55:33.333Z,23.70
2023-02-16T16:58:05.116Z,22.07
2023-02-16T17:00:36.359Z,21.97
2023-02-16T17:03:06.307Z,21.43
2023-02-16T17:05:34.764Z,23.27
2023-02-16T17:08:03.277Z,22.73
2023-02-16T17:10:33.172Z,23.73
2023-02-16T17:13:03.180Z,24.27
2023-02-16T17:15:37.020Z,23.53
2023-02-16T17:18:06.165Z,24.07
2023-02-16T17:20:34.851Z,22.30
2023-02-16T17:23:05.013Z,23.40
2023-02-16T17:25:37.756Z,22.97
2023-02-16T17:28:07.284Z,24.40
2023-02-16T17:30:36.037Z,25.90
2023-02-16T17:33:07.194Z,25.53
2023-02-16T17:35:38.023Z,23.60
2023-02-16T17:38:10.334Z,24.57
2023-02-16T17:40:41.463Z,23.20
2023-02-16T17:43:14.883Z,24.87
2023-02-16T17:45:43.620Z,23.03
2023-02-16T17:48:17.312Z,23.97
2023-02-16T17:50:45.802Z,23.00
2023-02-16T17:53:15.600Z,24.10
2023-02-16T17:55:46.877Z,23.83
2023-02-16T17:58:16.525Z,23.93
2023-02-16T18:00:45.989Z,24.30
2023-02-16T18:03:14.456Z,23.83
2023-02-16T18:05:42.904Z,23.80
2023-02-16T18:08:12.391Z,25.10
2023-02-16T18:10:46.049Z,24.20
2023-02-16T18:13:15.062Z,24.20
2023-02-16T18:15:47.622Z,26.83
2023-02-16T18:18:17.084Z,29.73
2023-02-16T18:20:46.103Z,22.67
2023-02-16T18:23:15.106Z,23.97
2023-02-16T18:25:44.895Z,22.87
2023-02-16T18:28:15.061Z,21.73
2023-02-16T18:30:43.484Z,22.30
2023-02-16T18:33:12.186Z,22.33
2023-02-16T18:35:40.567Z,21.93
2023-02-16T18:38:09.184Z,22.47
2023-02-16T18:40:37.809Z,21.77
2023-02-16T18:43:08.158Z,22.50
2023-02-16T18:45:38.931Z,21.63
2023-02-16T18:48:07.800Z,22.47
2023-02-16T18:50:36.276Z,22.67
2023-02-16T18:53:04.973Z,21.30
2023-02-16T18:55:34.090Z,22.57
2023-02-16T18:58:02.755Z,21.97
2023-02-16T19:00:32.818Z,23.10
2023-02-16T19:03:01.261Z,22.53
2023-02-16T19:05:29.855Z,23.87
2023-02-16T19:07:58.258Z,23.70
2023-02-16T19:10:26.734Z,23.30
2023-02-16T19:12:55.130Z,21.70
2023-02-16T19:15:23.536Z,23.87
2023-02-16T19:17:53.456Z,22.23
2023-02-16T19:20:21.855Z,23.57
2023-02-16T19:22:50.828Z,22.43
2023-02-16T19:25:19.533Z,23.63
2023-02-16T19:27:47.910Z,25.17
2023-02-16T19:30:16.363Z,24.13
2023-02-16T19:32:44.820Z,24.37
2023-02-16T19:35:14.615Z,24.17
2023-02-16T19:37:43.075Z,23.77
2023-02-16T19:40:13.334Z,23.27
2023-02-16T19:42:41.752Z,24.77
2023-02-16T19:45:10.635Z,26.63
2023-02-16T19:47:39.025Z,27.87
2023-02-16T19:50:08.469Z,29.03
2023-02-16T19:52:38.246Z,29.27
2023-02-16T19:55:07.042Z,28.63
2023-02-16T19:57:35.490Z,30.07
2023-02-16T20:00:05.911Z,30.03
2023-02-16T20:02:34.393Z,29.53
2023-02-16T20:05:02.725Z,29.53
2023-02-16T20:07:31.145Z,30.33
2023-02-16T20:10:01.092Z,30.97
2023-02-16T20:12:29.707Z,31.33
2023-02-16T20:14:58.458Z,31.57
2023-02-16T20:17:27.249Z,31.20
2023-02-16T20:19:55.748Z,31.53
2023-02-16T20:22:24.194Z,29.80
2023-02-16T20:24:53.674Z,31.37
2023-02-16T20:27:23.464Z,30.27
2023-02-16T20:29:51.885Z,28.73
2023-02-16T20:32:20.478Z,28.77
2023-02-16T20:34:48.957Z,29.13
2023-02-16T20:37:17.280Z,29.73
2023-02-16T20:39:45.689Z,27.87
2023-02-16T20:42:14.064Z,29.00
2023-02-16T20:44:43.992Z,28.97
2023-02-16T20:47:12.395Z,27.73
2023-02-16T20:49:40.839Z,28.17
2023-02-16T20:52:10.923Z,27.67
2023-02-16T20:54:39.691Z,27.47
2023-02-16T20:57:21.359Z,26.40
2023-02-16T20:59:56.010Z,25.87
2023-02-16T21:02:24.738Z,25.27
2023-02-16T21:04:53.302Z,27.30
2023-02-16T21:07:21.720Z,27.40
2023-02-16T21:09:50.134Z,25.10
2023-02-16T21:12:18.528Z,26.73
2023-02-16T21:14:46.949Z,27.03
2023-02-16T21:17:16.884Z,28.10
2023-02-16T21:19:45.306Z,26.83
2023-02-16T21:22:13.731Z,24.87
2023-02-16T21:24:43.492Z,25.63
2023-02-16T21:27:12.291Z,26.53
2023-02-16T21:29:40.656Z,24.97
2023-02-16T21:32:09.404Z,25.87
2023-02-16T21:34:39.474Z,22.90
2023-02-16T21:37:08.104Z,375.50
2023-02-16T21:39:53.160Z,308.80
2023-02-16T21:42:21.881Z,346.93
2023-02-16T21:45:10.303Z,50.77
2023-02-16T21:47:56.048Z,30.30
2023-02-16T21:50:26.028Z,150.93
2023-02-16T21:52:55.346Z,266.60
2023-02-16T21:55:41.136Z,212.13
2023-02-16T21:58:10.997Z,289.60
2023-02-16T22:00:40.153Z,216.87
2023-02-16T22:03:10.116Z,41.80
2023-02-16T22:05:39.948Z,301.47
2023-02-16T22:08:08.347Z,281.93
2023-02-16T22:10:37.029Z,99.97
2023-02-16T22:13:05.804Z,153.03
2023-02-16T22:15:36.959Z,212.23
2023-02-16T22:18:05.986Z,33.77
2023-02-16T22:20:34.870Z,30.27
2023-02-16T22:23:05.237Z,28.20
2023-02-16T22:25:33.807Z,27.97
2023-02-16T22:28:02.308Z,29.40
2023-02-16T22:30:30.744Z,32.13
2023-02-16T22:32:59.226Z,29.53
2023-02-16T22:35:27.678Z,42.73
2023-02-16T22:37:56.172Z,152.33
2023-02-16T22:40:26.062Z,133.37
2023-02-16T22:42:54.661Z,146.23
2023-02-16T22:45:23.133Z,116.30
2023-02-16T22:47:51.697Z,44.77
2023-02-16T22:50:20.179Z,35.13
2023-02-16T22:52:48.693Z,31.33
2023-02-16T22:55:17.219Z,30.33
2023-02-16T22:57:47.023Z,33.23
2023-02-16T23:00:17.970Z,41.90
2023-02-16T23:02:46.416Z,39.93
2023-02-16T23:05:14.831Z,38.20
2023-02-16T23:07:43.207Z,37.53
2023-02-16T23:10:12.198Z,36.27
2023-02-16T23:12:40.543Z,35.83
2023-02-16T23:15:11.483Z,37.70
2023-02-16T23:17:39.928Z,30.90
2023-02-16T23:20:09.668Z,371.43
2023-02-16T23:22:38.106Z,472.40
2023-02-16T23:25:24.445Z,343.17
2023-02-16T23:27:53.743Z,171.33
2023-02-16T23:30:23.642Z,57.90
2023-02-16T23:32:52.058Z,30.07
2023-02-16T23:35:20.501Z,27.00
2023-02-16T23:37:49.051Z,25.90
2023-02-16T23:40:17.405Z,26.37
2023-02-16T23:42:45.847Z,25.03
2023-02-16T23:45:14.266Z,24.47
2023-02-16T23:47:44.093Z,25.27
2023-02-16T23:50:12.991Z,23.33
2023-02-16T23:52:42.080Z,23.07
2023-02-16T23:55:10.674Z,24.53
2023-02-16T23:57:39.075Z,23.90
